createdAt,value
2022-11-03T00:00:01.404Z,2.38
2022-11-03T00:02:42.154Z,1.73
2022-11-03T00:05:30.800Z,1.65
2022-11-03T00:08:05.240Z,2.28
2022-11-03T00:10:35.824Z,1.77
2022-11-03T00:13:06.771Z,1.30
2022-11-03T00:15:38.002Z,1.50
2022-11-03T00:18:09.975Z,1.80
2022-11-03T00:20:40.678Z,1.70
2022-11-03T00:23:11.449Z,1.63
2022-11-03T00:25:42.803Z,1.65
2022-11-03T00:28:13.780Z,2.25
2022-11-03T00:30:44.202Z,2.75
2022-11-03T00:33:15.139Z,2.35
2022-11-03T00:35:46.361Z,2.58
2022-11-03T00:38:17.108Z,1.83
2022-11-03T00:40:47.777Z,1.75
2022-11-03T00:43:18.844Z,2.28
2022-11-03T00:45:49.487Z,1.52
2022-11-03T00:48:32.614Z,1.75
2022-11-03T00:51:07.756Z,1.63
2022-11-03T00:53:50.158Z,1.60
2022-11-03T00:56:29.828Z,2.20
2022-11-03T00:59:02.392Z,1.77
2022-11-03T01:01:44.152Z,2.00
2022-11-03T01:04:38.407Z,2.20
2022-11-03T01:07:09.604Z,1.45
2022-11-03T01:09:42.202Z,2.00
2022-11-03T01:12:18.007Z,1.77
2022-11-03T01:14:51.634Z,2.05
2022-11-03T01:17:31.166Z,2.08
2022-11-03T01:20:01.990Z,1.90
2022-11-03T01:22:34.195Z,1.40
2022-11-03T01:25:05.425Z,1.80
2022-11-03T01:27:38.335Z,1.50
2022-11-03T01:30:09.880Z,2.00
2022-11-03T01:32:40.418Z,1.65
2022-11-03T01:35:11.176Z,1.90
2022-11-03T01:37:41.846Z,2.28
2022-11-03T01:40:12.950Z,1.83
2022-11-03T01:42:43.265Z,1.92
2022-11-03T01:45:13.883Z,2.45
2022-11-03T01:47:47.748Z,2.13
2022-11-03T01:50:21.409Z,1.98
2022-11-03T01:52:58.928Z,1.85
2022-11-03T01:55:41.284Z,1.63
2022-11-03T01:58:30.056Z,1.52
2022-11-03T02:01:01.888Z,1.60
2022-11-03T02:03:41.322Z,1.95
2022-11-03T02:06:13.194Z,1.85
2022-11-03T02:09:15.886Z,1.83
2022-11-03T02:12:04.538Z,2.13
2022-11-03T02:14:36.403Z,2.55
2022-11-03T02:17:13.748Z,2.08
2022-11-03T02:19:59.957Z,2.28
2022-11-03T02:22:42.279Z,2.25
2022-11-03T02:25:52.552Z,1.85
2022-11-03T02:28:27.902Z,2.20
2022-11-03T02:31:16.905Z,2.00
2022-11-03T02:33:47.157Z,2.10
2022-11-03T02:36:44.169Z,2.10
2022-11-03T02:39:24.823Z,2.45
2022-11-03T02:41:58.242Z,1.80
2022-11-03T02:44:29.991Z,2.40
2022-11-03T02:47:04.930Z,1.88
2022-11-03T02:49:41.243Z,1.92
2022-11-03T02:52:44.391Z,2.25
2022-11-03T02:55:32.612Z,2.10
2022-11-03T02:58:08.118Z,1.80
2022-11-03T03:00:46.804Z,1.73
2022-11-03T03:03:36.081Z,1.85
2022-11-03T03:06:24.811Z,2.30
2022-11-03T03:09:00.867Z,2.08
2022-11-03T03:11:40.321Z,2.05
2022-11-03T03:14:26.239Z,2.22
2022-11-03T03:17:06.858Z,2.67
2022-11-03T03:20:00.654Z,2.30
2022-11-03T03:22:58.585Z,2.58
2022-11-03T03:25:34.184Z,1.90
2022-11-03T03:28:17.005Z,2.15
2022-11-03T03:30:49.879Z,2.05
2022-11-03T03:33:20.990Z,1.83
2022-11-03T03:35:53.130Z,2.28
2022-11-03T03:38:31.804Z,1.98
2022-11-03T03:41:06.742Z,1.95
2022-11-03T03:43:40.192Z,2.03
2022-11-03T03:46:13.477Z,2.05
2022-11-03T03:48:44.263Z,2.30
2022-11-03T03:51:17.509Z,2.65
2022-11-03T03:53:56.484Z,2.70
2022-11-03T03:56:35.875Z,2.15
2022-11-03T03:59:06.731Z,2.78
2022-11-03T04:01:37.668Z,2.83
2022-11-03T04:04:07.654Z,2.60
2022-11-03T04:06:37.949Z,2.60
2022-11-03T04:09:08.761Z,2.65
2022-11-03T04:11:56.438Z,2.85
2022-11-03T04:14:44.415Z,2.83
2022-11-03T04:17:40.719Z,2.35
2022-11-03T04:20:33.117Z,2.83
2022-11-03T04:23:03.358Z,2.60
2022-11-03T04:25:33.203Z,2.88
2022-11-03T04:28:04.461Z,2.40
2022-11-03T04:30:35.094Z,2.83
2022-11-03T04:33:06.807Z,2.60
2022-11-03T04:35:37.077Z,2.47
2022-11-03T04:38:23.394Z,2.58
2022-11-03T04:40:59.165Z,2.78
2022-11-03T04:43:36.145Z,2.88
2022-11-03T04:46:07.556Z,2.53
2022-11-03T04:48:37.863Z,2.60
2022-11-03T04:51:20.127Z,2.67
2022-11-03T04:54:00.655Z,2.33
2022-11-03T04:56:31.775Z,2.42
2022-11-03T04:59:01.835Z,2.55
2022-11-03T05:01:32.147Z,2.42
2022-11-03T05:04:02.218Z,2.72
2022-11-03T05:06:32.349Z,2.17
2022-11-03T05:09:06.930Z,2.15
2022-11-03T05:11:41.065Z,2.40
2022-11-03T05:14:16.732Z,2.25
2022-11-03T05:16:48.887Z,2.20
2022-11-03T05:19:30.979Z,2.13
2022-11-03T05:22:03.875Z,2.33
2022-11-03T05:24:37.668Z,2.03
2022-11-03T05:27:17.886Z,2.10
2022-11-03T05:29:48.789Z,2.00
2022-11-03T05:32:32.704Z,2.17
2022-11-03T05:35:04.266Z,2.00
2022-11-03T05:37:36.882Z,1.75
2022-11-03T05:40:27.102Z,2.13
2022-11-03T05:43:02.897Z,2.10
2022-11-03T05:45:37.077Z,2.10
2022-11-03T05:48:36.943Z,1.95
2022-11-03T05:51:27.186Z,2.17
2022-11-03T05:54:01.390Z,2.03
2022-11-03T05:56:34.833Z,2.50
2022-11-03T05:59:06.733Z,1.90
2022-11-03T06:01:41.114Z,1.77
2022-11-03T06:04:20.857Z,1.60
2022-11-03T06:07:03.318Z,1.75
2022-11-03T06:09:35.687Z,1.92
2022-11-03T06:12:08.388Z,2.13
2022-11-03T06:14:38.869Z,1.73
2022-11-03T06:17:20.169Z,1.85
2022-11-03T06:19:53.187Z,1.80
2022-11-03T06:22:25.589Z,1.90
2022-11-03T06:25:13.454Z,2.38
2022-11-03T06:27:44.284Z,1.80
2022-11-03T06:30:32.758Z,1.95
2022-11-03T06:33:12.250Z,2.15
2022-11-03T06:35:42.369Z,1.98
2022-11-03T06:38:33.494Z,2.30
2022-11-03T06:41:04.088Z,2.03
2022-11-03T06:43:42.148Z,1.95
2022-11-03T06:46:21.307Z,1.70
2022-11-03T06:51:25.697Z,2.38
2022-11-03T06:53:59.949Z,2.10
2022-11-03T06:56:37.602Z,1.80
2022-11-03T06:59:13.142Z,2.08
2022-11-03T07:01:43.732Z,1.75
2022-11-03T07:04:30.934Z,1.75
2022-11-03T07:07:04.380Z,2.33
2022-11-03T07:09:34.738Z,2.05
2022-11-03T07:12:04.863Z,2.00
2022-11-03T07:14:35.870Z,1.88
2022-11-03T07:17:13.536Z,2.15
2022-11-03T07:19:48.475Z,2.17
2022-11-03T07:22:22.202Z,2.30
2022-11-03T07:25:01.185Z,1.65
2022-11-03T07:27:33.501Z,1.95
2022-11-03T07:30:25.017Z,2.00
2022-11-03T07:32:59.738Z,2.10
2022-11-03T07:36:08.935Z,1.83
2022-11-03T07:38:35.035Z,1.83
2022-11-03T07:41:05.236Z,1.90
2022-11-03T07:43:39.518Z,2.65
2022-11-03T07:46:18.010Z,1.80
2022-11-03T07:48:50.062Z,2.20
2022-11-03T07:51:43.689Z,1.88
2022-11-03T07:54:36.800Z,2.10
2022-11-03T07:57:09.010Z,1.90
2022-11-03T07:59:45.343Z,2.20
2022-11-03T08:02:27.577Z,2.00
2022-11-03T08:04:58.019Z,1.80
2022-11-03T08:07:29.166Z,3.03
2022-11-03T08:09:59.955Z,2.47
2022-11-03T08:12:30.353Z,2.42
2022-11-03T08:15:00.668Z,2.25
2022-11-03T08:17:30.412Z,2.13
2022-11-03T08:20:01.178Z,1.98
2022-11-03T08:22:31.211Z,2.22
2022-11-03T08:25:02.535Z,2.25
2022-11-03T08:27:32.822Z,2.35
2022-11-03T08:30:02.618Z,1.88
2022-11-03T08:32:32.443Z,2.05
2022-11-03T08:35:02.253Z,2.08
2022-11-03T08:37:32.570Z,1.88
2022-11-03T08:40:02.622Z,2.10
2022-11-03T08:42:32.427Z,1.90
2022-11-03T08:45:02.714Z,1.70
2022-11-03T08:47:32.518Z,1.98
2022-11-03T08:50:02.469Z,2.15
2022-11-03T08:52:32.497Z,2.63
2022-11-03T08:55:02.368Z,2.80
2022-11-03T08:57:32.208Z,2.20
2022-11-03T09:00:02.018Z,3.28
2022-11-03T09:02:31.921Z,2.55
2022-11-03T09:05:01.896Z,2.22
2022-11-03T09:10:24.928Z,2.75
2022-11-03T09:12:58.545Z,2.55
2022-11-03T09:15:28.967Z,2.30
2022-11-03T09:17:59.034Z,2.85
2022-11-03T09:20:28.947Z,2.58
2022-11-03T09:22:58.778Z,2.33
2022-11-03T09:25:29.178Z,2.78
2022-11-03T09:27:59.498Z,2.50
2022-11-03T09:30:30.374Z,2.88
2022-11-03T09:33:00.509Z,2.30
2022-11-03T09:35:30.400Z,2.63
2022-11-03T09:38:00.218Z,2.70
2022-11-03T09:40:30.519Z,2.35
2022-11-03T09:43:00.331Z,2.22
2022-11-03T09:45:30.674Z,2.60
2022-11-03T09:48:00.694Z,2.03
2022-11-03T09:50:30.586Z,2.63
2022-11-03T09:53:00.449Z,2.85
2022-11-03T09:55:30.352Z,2.45
2022-11-03T09:58:03.219Z,2.50
2022-11-03T10:00:34.418Z,2.35
2022-11-03T10:03:06.104Z,2.15
2022-11-03T10:05:36.928Z,2.30
2022-11-03T10:08:13.567Z,2.65
2022-11-03T10:10:45.237Z,2.63
2022-11-03T10:13:35.253Z,4.38
2022-11-03T10:16:09.312Z,3.53
2022-11-03T10:18:39.815Z,3.60
2022-11-03T10:21:27.906Z,3.75
2022-11-03T10:23:58.564Z,4.05
2022-11-03T10:26:28.769Z,4.57
2022-11-03T10:29:10.824Z,4.00
2022-11-03T10:31:43.233Z,4.50
2022-11-03T10:34:38.533Z,3.65
2022-11-03T10:37:41.091Z,2.13
2022-11-03T10:40:52.770Z,2.83
2022-11-03T10:43:23.153Z,2.60
2022-11-03T10:46:29.674Z,2.40
2022-11-03T10:49:08.815Z,2.17
2022-11-03T10:51:39.355Z,2.03
2022-11-03T10:54:14.441Z,1.75
2022-11-03T10:56:46.053Z,1.33
2022-11-03T10:59:21.865Z,1.65
2022-11-03T11:01:52.075Z,1.42
2022-11-03T11:04:23.038Z,1.27
2022-11-03T11:06:54.134Z,1.23
2022-11-03T11:09:27.232Z,0.90
2022-11-03T11:12:07.864Z,1.00
2022-11-03T11:14:40.790Z,0.95
2022-11-03T11:17:39.957Z,1.02
2022-11-03T11:20:33.695Z,1.42
2022-11-03T11:23:30.873Z,1.70
2022-11-03T11:26:13.515Z,0.90
2022-11-03T11:28:46.090Z,1.17
2022-11-03T11:31:28.643Z,1.10
2022-11-03T11:34:22.148Z,1.25
2022-11-03T11:36:58.074Z,0.90
2022-11-03T11:39:32.261Z,0.90
2022-11-03T11:42:16.594Z,1.23
2022-11-03T11:44:55.122Z,1.92
2022-11-03T11:47:48.130Z,2.70
2022-11-03T11:50:44.606Z,1.40
2022-11-03T11:53:20.354Z,0.90
2022-11-03T11:56:03.162Z,1.08
2022-11-03T11:58:43.889Z,0.73
2022-11-03T12:01:31.923Z,2.15
2022-11-03T12:04:26.951Z,0.88
2022-11-03T12:06:58.563Z,1.05
2022-11-03T12:09:31.233Z,0.70
2022-11-03T12:14:43.840Z,0.95
2022-11-03T12:17:26.787Z,1.10
2022-11-03T12:19:58.892Z,1.33
2022-11-03T12:22:32.052Z,0.70
2022-11-03T12:25:11.930Z,1.02
2022-11-03T12:27:44.017Z,1.02
2022-11-03T12:30:39.568Z,0.82
2022-11-03T12:33:11.620Z,0.80
2022-11-03T12:35:42.850Z,1.00
2022-11-03T12:38:13.149Z,0.90
2022-11-03T12:40:43.760Z,1.10
2022-11-03T12:43:16.834Z,1.60
2022-11-03T12:45:49.068Z,1.00
2022-11-03T12:48:20.890Z,1.48
2022-11-03T12:50:51.344Z,1.00
2022-11-03T12:53:42.072Z,0.82
2022-11-03T12:56:15.555Z,1.15
2022-11-03T12:58:48.420Z,0.95
2022-11-03T13:01:20.554Z,0.80
2022-11-03T13:04:12.236Z,0.80
2022-11-03T13:06:43.387Z,1.00
2022-11-03T13:09:13.578Z,1.02
2022-11-03T13:12:02.087Z,0.80
2022-11-03T13:14:38.509Z,1.23
2022-11-03T13:17:09.684Z,0.80
2022-11-03T13:19:41.246Z,1.27
2022-11-03T13:22:11.886Z,0.77
2022-11-03T13:24:42.906Z,0.70
2022-11-03T13:27:14.148Z,1.00
2022-11-03T13:29:44.485Z,1.10
2022-11-03T13:32:14.560Z,0.90
2022-11-03T13:34:46.859Z,1.10
2022-11-03T13:37:18.632Z,0.98
2022-11-03T13:39:49.187Z,0.90
2022-11-03T13:42:19.655Z,1.30
2022-11-03T13:44:51.074Z,0.98
2022-11-03T13:47:34.308Z,2.67
2022-11-03T13:50:14.809Z,0.98
2022-11-03T13:52:46.608Z,2.13
2022-11-03T13:55:43.873Z,1.83
2022-11-03T14:01:27.359Z,1.83
2022-11-03T14:06:50.659Z,0.73
2022-11-03T14:09:22.064Z,0.90
2022-11-03T14:12:12.603Z,1.52
2022-11-03T14:14:44.214Z,1.00
2022-11-03T14:17:16.124Z,0.73
2022-11-03T14:22:24.580Z,1.23
2022-11-03T14:25:15.199Z,0.90
2022-11-03T14:27:45.642Z,0.63
2022-11-03T14:30:17.246Z,0.82
2022-11-03T14:32:49.064Z,0.70
2022-11-03T14:35:20.131Z,0.57
2022-11-03T14:37:50.463Z,1.42
2022-11-03T14:40:43.654Z,0.82
2022-11-03T14:43:35.238Z,0.90
2022-11-03T14:46:07.034Z,2.03
2022-11-03T14:48:37.400Z,1.05
2022-11-03T14:51:07.873Z,1.10
2022-11-03T14:53:38.583Z,0.80
2022-11-03T14:56:09.147Z,0.85
2022-11-03T14:58:39.369Z,0.70
2022-11-03T15:01:10.284Z,0.90
2022-11-03T15:03:41.116Z,0.60
2022-11-03T15:06:12.142Z,0.75
2022-11-03T15:08:42.312Z,0.90
2022-11-03T15:11:12.241Z,0.85
2022-11-03T15:13:45.974Z,0.93
2022-11-03T15:16:19.184Z,0.98
2022-11-03T15:18:49.437Z,0.88
2022-11-03T15:21:19.632Z,0.77
2022-11-03T15:26:40.021Z,0.90
2022-11-03T15:29:10.121Z,1.23
2022-11-03T15:31:46.206Z,1.00
2022-11-03T15:34:18.004Z,0.70
2022-11-03T15:36:48.074Z,0.90
2022-11-03T15:39:19.054Z,0.90
2022-11-03T15:41:49.502Z,0.70
2022-11-03T15:44:19.400Z,1.00
2022-11-03T15:46:49.633Z,0.93
2022-11-03T15:49:19.557Z,0.90
2022-11-03T15:51:49.948Z,0.80
2022-11-03T15:54:19.851Z,0.80
2022-11-03T15:56:50.469Z,2.53
2022-11-03T15:59:20.380Z,1.02
2022-11-03T16:01:50.552Z,0.90
2022-11-03T16:04:20.512Z,0.82
2022-11-03T16:09:40.793Z,0.75
2022-11-03T16:12:11.277Z,1.10
2022-11-03T16:14:41.127Z,0.82
2022-11-03T16:17:11.243Z,0.70
2022-11-03T16:19:41.225Z,0.95
2022-11-03T16:22:11.611Z,0.68
2022-11-03T16:24:42.568Z,0.85
2022-11-03T16:27:12.764Z,1.15
2022-11-03T16:29:42.676Z,0.80
2022-11-03T16:32:12.991Z,0.90
2022-11-03T16:34:43.031Z,0.93
2022-11-03T16:37:13.137Z,1.00
2022-11-03T16:39:43.853Z,1.08
2022-11-03T16:42:14.626Z,1.05
2022-11-03T16:44:44.740Z,1.10
2022-11-03T16:47:14.681Z,1.05
2022-11-03T16:49:44.596Z,1.05
2022-11-03T16:52:15.236Z,0.77
2022-11-03T16:54:45.659Z,1.00
2022-11-03T16:57:16.034Z,0.73
2022-11-03T16:59:46.032Z,1.17
2022-11-03T17:02:16.821Z,1.00
2022-11-03T17:04:47.743Z,1.02
2022-11-03T17:07:17.904Z,1.40
2022-11-03T17:09:48.307Z,0.93
2022-11-03T17:12:18.487Z,0.90
2022-11-03T17:14:51.188Z,0.80
2022-11-03T17:17:25.010Z,0.95
2022-11-03T17:19:55.785Z,0.93
2022-11-03T17:22:26.317Z,0.70
2022-11-03T17:24:56.311Z,1.40
2022-11-03T17:27:40.284Z,0.65
2022-11-03T17:30:25.529Z,0.70
2022-11-03T17:33:00.625Z,0.63
2022-11-03T17:35:39.525Z,0.98
2022-11-03T17:38:15.889Z,0.60
2022-11-03T17:40:49.028Z,0.57
2022-11-03T17:43:28.388Z,0.65
2022-11-03T17:45:58.845Z,0.63
2022-11-03T17:48:29.217Z,0.50
2022-11-03T17:50:59.207Z,0.57
2022-11-03T17:53:35.463Z,0.80
2022-11-03T17:58:57.304Z,0.63
2022-11-03T18:01:28.889Z,0.82
2022-11-03T18:03:59.587Z,0.50
2022-11-03T18:06:30.323Z,0.63
2022-11-03T18:09:00.739Z,1.15
2022-11-03T18:11:51.121Z,0.60
2022-11-03T18:14:21.695Z,0.80
2022-11-03T18:16:53.525Z,0.63
2022-11-03T18:21:54.110Z,0.77
2022-11-03T18:24:24.210Z,0.70
2022-11-03T18:26:54.212Z,0.70
2022-11-03T18:29:24.650Z,1.00
2022-11-03T18:31:54.726Z,0.60
2022-11-03T18:34:27.615Z,0.40
2022-11-03T18:36:58.093Z,0.70
2022-11-03T18:39:30.066Z,0.50
2022-11-03T18:42:01.008Z,0.60
2022-11-03T18:44:32.067Z,0.70
2022-11-03T18:47:02.517Z,0.60
2022-11-03T18:49:34.848Z,0.50
2022-11-03T18:52:17.296Z,0.70
2022-11-03T18:54:53.473Z,0.55
2022-11-03T18:57:28.645Z,0.60
2022-11-03T18:59:59.205Z,0.40
2022-11-03T19:02:30.502Z,0.40
2022-11-03T19:05:01.114Z,0.63
2022-11-03T19:07:34.225Z,0.70
2022-11-03T19:10:09.947Z,0.65
2022-11-03T19:12:41.598Z,0.55
2022-11-03T19:15:24.010Z,0.50
2022-11-03T19:18:00.800Z,0.50
2022-11-03T19:20:30.935Z,0.50
2022-11-03T19:23:00.986Z,0.47
2022-11-03T19:25:31.492Z,0.60
2022-11-03T19:28:02.097Z,0.60
2022-11-03T19:30:33.688Z,0.80
2022-11-03T19:33:03.920Z,0.68
2022-11-03T19:35:36.276Z,0.70
2022-11-03T19:38:14.202Z,0.50
2022-11-03T19:41:06.043Z,0.93
2022-11-03T19:43:36.266Z,0.68
2022-11-03T19:46:07.030Z,0.77
2022-11-03T19:48:37.637Z,0.85
2022-11-03T19:51:09.483Z,0.80
2022-11-03T19:53:43.170Z,0.43
2022-11-03T19:56:19.694Z,0.73
2022-11-03T19:58:51.126Z,0.52
2022-11-03T20:01:21.830Z,1.10
2022-11-03T20:03:52.127Z,0.60
2022-11-03T20:06:22.392Z,0.52
2022-11-03T20:08:54.072Z,0.60
2022-11-03T20:11:24.759Z,0.60
2022-11-03T20:13:56.583Z,0.93
2022-11-03T20:18:56.880Z,0.63
2022-11-03T20:21:33.105Z,0.70
2022-11-03T20:24:06.175Z,0.80
2022-11-03T20:26:37.240Z,0.70
2022-11-03T20:29:14.642Z,0.50
2022-11-03T20:31:46.483Z,0.63
2022-11-03T20:34:17.447Z,0.75
2022-11-03T20:36:49.300Z,0.73
2022-11-03T20:39:21.259Z,0.77
2022-11-03T20:41:54.967Z,1.02
2022-11-03T20:44:25.166Z,0.60
2022-11-03T20:46:55.330Z,0.90
2022-11-03T20:49:25.629Z,0.70
2022-11-03T20:51:55.854Z,0.77
2022-11-03T20:54:26.437Z,0.73
2022-11-03T20:56:56.470Z,0.70
2022-11-03T20:59:27.818Z,0.90
2022-11-03T21:01:59.570Z,0.52
2022-11-03T21:04:31.756Z,0.90
2022-11-03T21:09:31.630Z,0.80
2022-11-03T21:12:01.614Z,0.80
2022-11-03T21:14:34.531Z,3.10
2022-11-03T21:17:37.067Z,0.88
2022-11-03T21:20:12.816Z,0.80
2022-11-03T21:22:53.807Z,0.73
2022-11-03T21:25:26.680Z,3.40
2022-11-03T21:27:57.491Z,1.10
2022-11-03T21:30:28.252Z,0.75
2022-11-03T21:32:58.603Z,1.00
2022-11-03T21:35:28.987Z,0.60
2022-11-03T21:37:59.609Z,0.80
2022-11-03T21:40:31.081Z,1.30
2022-11-03T21:43:19.716Z,0.90
2022-11-03T21:45:50.134Z,0.98
2022-11-03T21:48:38.228Z,0.80
2022-11-03T21:51:08.625Z,0.70
2022-11-03T21:53:39.175Z,0.68
2022-11-03T21:56:15.250Z,1.10
2022-11-03T21:58:46.476Z,1.30
2022-11-03T22:01:17.216Z,1.10
2022-11-03T22:03:48.067Z,2.55
2022-11-03T22:06:18.877Z,3.90
2022-11-03T22:08:49.369Z,2.75
2022-11-03T22:11:22.655Z,1.83
2022-11-03T22:14:02.475Z,1.27
2022-11-03T22:16:41.130Z,2.08
2022-11-03T22:19:33.427Z,1.27
2022-11-03T22:22:24.502Z,1.00
2022-11-03T22:25:13.734Z,1.00
2022-11-03T22:27:45.494Z,1.23
2022-11-03T22:30:34.028Z,2.30
2022-11-03T22:33:04.613Z,1.35
2022-11-03T22:35:53.320Z,1.70
2022-11-03T22:38:43.859Z,1.67
2022-11-03T22:41:32.278Z,1.45
2022-11-03T22:44:21.194Z,1.48
2022-11-03T22:46:52.077Z,1.90
2022-11-03T22:49:23.033Z,1.50
2022-11-03T22:51:53.490Z,1.60
2022-11-03T22:54:23.821Z,1.70
2022-11-03T22:56:54.995Z,2.42
2022-11-03T22:59:25.991Z,1.75
2022-11-03T23:01:56.585Z,1.50
2022-11-03T23:04:27.047Z,1.60
2022-11-03T23:06:57.484Z,1.80
2022-11-03T23:09:29.793Z,1.80
2022-11-03T23:14:50.384Z,2.13
2022-11-03T23:17:21.325Z,2.40
2022-11-03T23:20:29.972Z,2.10
2022-11-03T23:23:00.556Z,2.72
2022-11-03T23:25:33.873Z,3.40
2022-11-03T23:28:04.854Z,2.63
2022-11-03T23:30:36.972Z,2.15
2022-11-03T23:33:09.324Z,2.20
2022-11-03T23:35:40.437Z,2.00
2022-11-03T23:38:12.874Z,1.80
2022-11-03T23:40:43.861Z,1.90
2022-11-03T23:43:14.422Z,1.67
2022-11-03T23:46:03.336Z,1.58
2022-11-03T23:48:47.682Z,1.92
2022-11-03T23:51:26.644Z,2.38
2022-11-03T23:53:58.691Z,1.55
2022-11-03T23:56:49.877Z,1.83
2022-11-03T23:59:40.802Z,1.65
